sensor_id;sensor_type;location;lat;lon;timestamp;temperature;humidity
42031;DHT22;27709;52.036;5.906;2023-02-11T00:02:20;7.20;99.90
42031;DHT22;27709;52.036;5.906;2023-02-11T00:04:45;7.20;99.90
42031;DHT22;27709;52.036;5.906;2023-02-11T00:07:11;7.20;99.90
42031;DHT22;27709;52.036;5.906;2023-02-11T00:09:36;7.20;99.90
42031;DHT22;27709;52.036;5.906;2023-02-11T00:12:02;7.20;99.90
42031;DHT22;27709;52.036;5.906;2023-02-11T00:14:28;7.20;99.90
42031;DHT22;27709;52.036;5.906;2023-02-11T00:16:53;7.30;99.90
42031;DHT22;27709;52.036;5.906;2023-02-11T00:19:19;7.30;99.90
42031;DHT22;27709;52.036;5.906;2023-02-11T00:21:44;7.30;99.90
42031;DHT22;27709;52.036;5.906;2023-02-11T00:24:11;7.30;99.90
42031;DHT22;27709;52.036;5.906;2023-02-11T00:26:37;7.20;99.90
42031;DHT22;27709;52.036;5.906;2023-02-11T00:29:03;7.30;99.90
42031;DHT22;27709;52.036;5.906;2023-02-11T00:31:29;7.30;99.90
42031;DHT22;27709;52.036;5.906;2023-02-11T00:33:54;7.30;99.90
42031;DHT22;27709;52.036;5.906;2023-02-11T00:36:23;7.30;99.90
42031;DHT22;27709;52.036;5.906;2023-02-11T00:38:51;7.30;99.90
42031;DHT22;27709;52.036;5.906;2023-02-11T00:41:17;7.30;99.90
42031;DHT22;27709;52.036;5.906;2023-02-11T00:43:43;7.30;99.90
42031;DHT22;27709;52.036;5.906;2023-02-11T00:46:09;7.30;99.90
42031;DHT22;27709;52.036;5.906;2023-02-11T00:48:35;7.30;99.90
42031;DHT22;27709;52.036;5.906;2023-02-11T00:51:01;7.30;99.90
42031;DHT22;27709;52.036;5.906;2023-02-11T00:53:28;7.30;99.90
42031;DHT22;27709;52.036;5.906;2023-02-11T00:55:54;7.30;99.90
42031;DHT22;27709;52.036;5.906;2023-02-11T00:58:19;7.30;99.90
42031;DHT22;27709;52.036;5.906;2023-02-11T01:00:46;7.30;99.90
42031;DHT22;27709;52.036;5.906;2023-02-11T01:03:12;7.30;99.90
42031;DHT22;27709;52.036;5.906;2023-02-11T01:05:37;7.30;99.90
42031;DHT22;27709;52.036;5.906;2023-02-11T01:08:03;7.30;99.90
42031;DHT22;27709;52.036;5.906;2023-02-11T01:10:29;7.30;99.90
42031;DHT22;27709;52.036;5.906;2023-02-11T01:12:54;7.30;99.90
42031;DHT22;27709;52.036;5.906;2023-02-11T01:15:20;7.30;99.90
42031;DHT22;27709;52.036;5.906;2023-02-11T01:17:46;7.30;99.90
42031;DHT22;27709;52.036;5.906;2023-02-11T01:20:20;7.30;99.90
42031;DHT22;27709;52.036;5.906;2023-02-11T01:22:46;7.30;99.90
42031;DHT22;27709;52.036;5.906;2023-02-11T01:25:11;7.20;99.90
42031;DHT22;27709;52.036;5.906;2023-02-11T01:27:37;7.20;99.90
42031;DHT22;27709;52.036;5.906;2023-02-11T01:30:04;7.20;99.90
42031;DHT22;27709;52.036;5.906;2023-02-11T01:32:30;7.10;99.90
42031;DHT22;27709;52.036;5.906;2023-02-11T01:34:55;7.10;99.90
42031;DHT22;27709;52.036;5.906;2023-02-11T01:37:21;7.10;99.90
42031;DHT22;27709;52.036;5.906;2023-02-11T01:39:46;7.10;99.90
42031;DHT22;27709;52.036;5.906;2023-02-11T01:42:17;7.10;99.90
42031;DHT22;27709;52.036;5.906;2023-02-11T01:44:43;7.10;99.90
42031;DHT22;27709;52.036;5.906;2023-02-11T01:47:09;7.20;99.90
42031;DHT22;27709;52.036;5.906;2023-02-11T01:49:48;7.20;99.90
42031;DHT22;27709;52.036;5.906;2023-02-11T01:52:25;7.20;99.90
42031;DHT22;27709;52.036;5.906;2023-02-11T01:54:54;7.20;99.90
42031;DHT22;27709;52.036;5.906;2023-02-11T01:57:42;7.20;99.90
42031;DHT22;27709;52.036;5.906;2023-02-11T02:00:29;7.20;99.90
42031;DHT22;27709;52.036;5.906;2023-02-11T02:10:52;7.20;99.90
42031;DHT22;27709;52.036;5.906;2023-02-11T02:13:22;7.20;99.90
42031;DHT22;27709;52.036;5.906;2023-02-11T02:15:55;7.20;99.90
42031;DHT22;27709;52.036;5.906;2023-02-11T02:24:16;7.20;99.90
42031;DHT22;27709;52.036;5.906;2023-02-11T02:27:12;7.20;99.90
42031;DHT22;27709;52.036;5.906;2023-02-11T02:32:55;7.10;99.90
42031;DHT22;27709;52.036;5.906;2023-02-11T02:38:32;7.10;99.90
42031;DHT22;27709;52.036;5.906;2023-02-11T02:43:25;7.10;99.90
42031;DHT22;27709;52.036;5.906;2023-02-11T02:45:51;7.10;99.90
42031;DHT22;27709;52.036;5.906;2023-02-11T02:48:28;7.10;99.90
42031;DHT22;27709;52.036;5.906;2023-02-11T02:53:38;7.10;99.90
42031;DHT22;27709;52.036;5.906;2023-02-11T03:04:53;7.10;99.90
42031;DHT22;27709;52.036;5.906;2023-02-11T03:07:40;7.00;99.90
42031;DHT22;27709;52.036;5.906;2023-02-11T03:10:20;7.10;99.90
42031;DHT22;27709;52.036;5.906;2023-02-11T03:12:47;7.00;99.90
42031;DHT22;27709;52.036;5.906;2023-02-11T03:15:16;7.00;99.90
42031;DHT22;27709;52.036;5.906;2023-02-11T03:17:46;7.00;99.90
42031;DHT22;27709;52.036;5.906;2023-02-11T03:20:15;7.00;99.90
42031;DHT22;27709;52.036;5.906;2023-02-11T03:25:29;7.00;99.90
42031;DHT22;27709;52.036;5.906;2023-02-11T03:28:05;7.00;99.90
42031;DHT22;27709;52.036;5.906;2023-02-11T03:30:37;7.00;99.90
42031;DHT22;27709;52.036;5.906;2023-02-11T03:33:10;7.00;99.90
42031;DHT22;27709;52.036;5.906;2023-02-11T03:35:52;7.00;99.90
42031;DHT22;27709;52.036;5.906;2023-02-11T03:38:33;7.00;99.90
42031;DHT22;27709;52.036;5.906;2023-02-11T03:41:01;7.10;99.90
42031;DHT22;27709;52.036;5.906;2023-02-11T03:43:33;7.00;99.90
42031;DHT22;27709;52.036;5.906;2023-02-11T03:46:01;7.00;99.90
42031;DHT22;27709;52.036;5.906;2023-02-11T03:48:34;7.00;99.90
42031;DHT22;27709;52.036;5.906;2023-02-11T03:51:02;7.00;99.90
42031;DHT22;27709;52.036;5.906;2023-02-11T03:53:30;7.00;99.90
42031;DHT22;27709;52.036;5.906;2023-02-11T03:55:57;7.00;99.90
42031;DHT22;27709;52.036;5.906;2023-02-11T03:58:24;7.10;99.90
42031;DHT22;27709;52.036;5.906;2023-02-11T04:00:50;7.10;99.90
42031;DHT22;27709;52.036;5.906;2023-02-11T04:03:15;7.10;99.90
42031;DHT22;27709;52.036;5.906;2023-02-11T04:05:41;7.00;99.90
42031;DHT22;27709;52.036;5.906;2023-02-11T04:08:07;7.00;99.90
42031;DHT22;27709;52.036;5.906;2023-02-11T04:10:33;7.00;99.90
42031;DHT22;27709;52.036;5.906;2023-02-11T04:12:59;7.10;99.90
42031;DHT22;27709;52.036;5.906;2023-02-11T04:15:25;7.10;99.90
42031;DHT22;27709;52.036;5.906;2023-02-11T04:17:50;7.10;99.90
42031;DHT22;27709;52.036;5.906;2023-02-11T04:20:16;7.10;99.90
42031;DHT22;27709;52.036;5.906;2023-02-11T04:22:42;7.10;99.90
42031;DHT22;27709;52.036;5.906;2023-02-11T04:25:08;7.10;99.90
42031;DHT22;27709;52.036;5.906;2023-02-11T04:27:34;7.10;99.90
42031;DHT22;27709;52.036;5.906;2023-02-11T04:30:00;7.10;99.90
42031;DHT22;27709;52.036;5.906;2023-02-11T04:32:25;7.10;99.90
42031;DHT22;27709;52.036;5.906;2023-02-11T04:34:51;7.10;99.90
42031;DHT22;27709;52.036;5.906;2023-02-11T04:37:17;7.10;99.90
42031;DHT22;27709;52.036;5.906;2023-02-11T04:39:42;7.10;99.90
42031;DHT22;27709;52.036;5.906;2023-02-11T04:42:08;7.10;99.90
42031;DHT22;27709;52.036;5.906;2023-02-11T04:44:33;7.10;99.90
42031;DHT22;27709;52.036;5.906;2023-02-11T04:46:59;7.10;99.90
42031;DHT22;27709;52.036;5.906;2023-02-11T04:49:24;7.10;99.90
42031;DHT22;27709;52.036;5.906;2023-02-11T04:51:50;7.10;99.90
42031;DHT22;27709;52.036;5.906;2023-02-11T04:54:16;7.10;99.90
42031;DHT22;27709;52.036;5.906;2023-02-11T04:56:42;7.10;99.90
42031;DHT22;27709;52.036;5.906;2023-02-11T04:59:08;7.10;99.90
42031;DHT22;27709;52.036;5.906;2023-02-11T05:01:33;7.10;99.90
42031;DHT22;27709;52.036;5.906;2023-02-11T05:03:59;7.10;99.90
42031;DHT22;27709;52.036;5.906;2023-02-11T05:06:24;7.20;99.90
42031;DHT22;27709;52.036;5.906;2023-02-11T05:08:50;7.20;99.90
42031;DHT22;27709;52.036;5.906;2023-02-11T05:11:20;7.20;99.90
42031;DHT22;27709;52.036;5.906;2023-02-11T05:13:46;7.20;99.90
42031;DHT22;27709;52.036;5.906;2023-02-11T05:16:14;7.20;99.90
42031;DHT22;27709;52.036;5.906;2023-02-11T05:18:41;7.20;99.90
42031;DHT22;27709;52.036;5.906;2023-02-11T05:21:13;7.20;99.90
42031;DHT22;27709;52.036;5.906;2023-02-11T05:23:39;7.20;99.90
42031;DHT22;27709;52.036;5.906;2023-02-11T05:26:06;7.20;99.90
42031;DHT22;27709;52.036;5.906;2023-02-11T05:28:32;7.20;99.90
42031;DHT22;27709;52.036;5.906;2023-02-11T05:30:57;7.20;99.90
42031;DHT22;27709;52.036;5.906;2023-02-11T05:33:23;7.30;99.90
42031;DHT22;27709;52.036;5.906;2023-02-11T05:35:49;7.20;99.90
42031;DHT22;27709;52.036;5.906;2023-02-11T05:38:15;7.30;99.90
42031;DHT22;27709;52.036;5.906;2023-02-11T05:40:41;7.30;99.90
42031;DHT22;27709;52.036;5.906;2023-02-11T05:43:06;7.30;99.90
42031;DHT22;27709;52.036;5.906;2023-02-11T05:45:32;7.30;99.90
42031;DHT22;27709;52.036;5.906;2023-02-11T05:47:58;7.30;99.90
42031;DHT22;27709;52.036;5.906;2023-02-11T05:50:24;7.20;99.90
42031;DHT22;27709;52.036;5.906;2023-02-11T05:52:49;7.30;99.90
42031;DHT22;27709;52.036;5.906;2023-02-11T05:55:15;7.30;99.90
42031;DHT22;27709;52.036;5.906;2023-02-11T05:57:40;7.30;99.90
42031;DHT22;27709;52.036;5.906;2023-02-11T06:00:07;7.20;99.90
42031;DHT22;27709;52.036;5.906;2023-02-11T06:02:33;7.20;99.90
42031;DHT22;27709;52.036;5.906;2023-02-11T06:04:58;7.30;99.90
42031;DHT22;27709;52.036;5.906;2023-02-11T06:07:24;7.30;99.90
42031;DHT22;27709;52.036;5.906;2023-02-11T06:09:50;7.30;99.90
42031;DHT22;27709;52.036;5.906;2023-02-11T06:12:15;7.30;99.90
42031;DHT22;27709;52.036;5.906;2023-02-11T06:14:41;7.30;99.90
42031;DHT22;27709;52.036;5.906;2023-02-11T06:17:06;7.30;99.90
42031;DHT22;27709;52.036;5.906;2023-02-11T06:19:32;7.30;99.90
42031;DHT22;27709;52.036;5.906;2023-02-11T06:21:57;7.30;99.90
42031;DHT22;27709;52.036;5.906;2023-02-11T06:24:23;7.30;99.90
42031;DHT22;27709;52.036;5.906;2023-02-11T06:26:49;7.30;99.90
42031;DHT22;27709;52.036;5.906;2023-02-11T06:29:15;7.30;99.90
42031;DHT22;27709;52.036;5.906;2023-02-11T06:31:40;7.30;99.90
42031;DHT22;27709;52.036;5.906;2023-02-11T06:34:07;7.30;99.90
42031;DHT22;27709;52.036;5.906;2023-02-11T06:36:33;7.30;99.90
42031;DHT22;27709;52.036;5.906;2023-02-11T06:38:59;7.20;99.90
42031;DHT22;27709;52.036;5.906;2023-02-11T06:41:24;7.30;99.90
42031;DHT22;27709;52.036;5.906;2023-02-11T06:43:51;7.30;99.90
42031;DHT22;27709;52.036;5.906;2023-02-11T06:46:17;7.30;99.90
42031;DHT22;27709;52.036;5.906;2023-02-11T06:48:43;7.30;99.90
42031;DHT22;27709;52.036;5.906;2023-02-11T06:51:10;7.30;99.90
42031;DHT22;27709;52.036;5.906;2023-02-11T06:53:39;7.30;99.90
42031;DHT22;27709;52.036;5.906;2023-02-11T06:56:08;7.30;99.90
42031;DHT22;27709;52.036;5.906;2023-02-11T06:58:34;7.30;99.90
42031;DHT22;27709;52.036;5.906;2023-02-11T07:01:07;7.30;99.90
42031;DHT22;27709;52.036;5.906;2023-02-11T07:03:33;7.30;99.90
42031;DHT22;27709;52.036;5.906;2023-02-11T07:06:01;7.20;99.90
42031;DHT22;27709;52.036;5.906;2023-02-11T07:08:26;7.20;99.90
42031;DHT22;27709;52.036;5.906;2023-02-11T07:10:52;7.20;99.90
42031;DHT22;27709;52.036;5.906;2023-02-11T07:13:17;7.20;99.90
42031;DHT22;27709;52.036;5.906;2023-02-11T07:15:43;7.20;99.90
42031;DHT22;27709;52.036;5.906;2023-02-11T07:18:08;7.10;99.90
42031;DHT22;27709;52.036;5.906;2023-02-11T07:20:35;7.20;99.90
42031;DHT22;27709;52.036;5.906;2023-02-11T07:23:00;7.20;99.90
42031;DHT22;27709;52.036;5.906;2023-02-11T07:25:26;7.20;99.90
42031;DHT22;27709;52.036;5.906;2023-02-11T07:27:51;7.30;99.90
42031;DHT22;27709;52.036;5.906;2023-02-11T07:30:17;7.30;99.90
42031;DHT22;27709;52.036;5.906;2023-02-11T07:32:43;7.30;99.90
42031;DHT22;27709;52.036;5.906;2023-02-11T07:35:08;7.30;99.90
42031;DHT22;27709;52.036;5.906;2023-02-11T07:37:34;7.30;99.90
42031;DHT22;27709;52.036;5.906;2023-02-11T07:39:59;7.30;99.90
42031;DHT22;27709;52.036;5.906;2023-02-11T07:42:25;7.40;99.90
42031;DHT22;27709;52.036;5.906;2023-02-11T07:44:50;7.40;99.90
42031;DHT22;27709;52.036;5.906;2023-02-11T07:47:16;7.40;99.90
42031;DHT22;27709;52.036;5.906;2023-02-11T07:49:41;7.40;99.90
42031;DHT22;27709;52.036;5.906;2023-02-11T07:52:07;7.40;99.90
42031;DHT22;27709;52.036;5.906;2023-02-11T07:54:32;7.40;99.90
42031;DHT22;27709;52.036;5.906;2023-02-11T07:56:58;7.40;99.90
42031;DHT22;27709;52.036;5.906;2023-02-11T07:59:24;7.50;99.90
42031;DHT22;27709;52.036;5.906;2023-02-11T08:01:50;7.50;99.90
42031;DHT22;27709;52.036;5.906;2023-02-11T08:04:16;7.50;99.90
42031;DHT22;27709;52.036;5.906;2023-02-11T08:06:42;7.60;99.90
42031;DHT22;27709;52.036;5.906;2023-02-11T08:09:10;7.60;99.90
42031;DHT22;27709;52.036;5.906;2023-02-11T08:11:38;7.60;99.90
42031;DHT22;27709;52.036;5.906;2023-02-11T08:14:03;7.60;99.90
42031;DHT22;27709;52.036;5.906;2023-02-11T08:16:32;7.60;99.90
42031;DHT22;27709;52.036;5.906;2023-02-11T08:19:06;7.70;99.90
42031;DHT22;27709;52.036;5.906;2023-02-11T08:21:31;7.70;99.90
42031;DHT22;27709;52.036;5.906;2023-02-11T08:23:57;7.70;99.90
42031;DHT22;27709;52.036;5.906;2023-02-11T08:26:26;7.80;99.90
42031;DHT22;27709;52.036;5.906;2023-02-11T08:28:53;7.80;99.90
42031;DHT22;27709;52.036;5.906;2023-02-11T08:31:24;7.80;99.90
42031;DHT22;27709;52.036;5.906;2023-02-11T08:33:50;7.80;99.90
42031;DHT22;27709;52.036;5.906;2023-02-11T08:36:20;7.80;99.90
42031;DHT22;27709;52.036;5.906;2023-02-11T08:38:46;7.90;99.90
42031;DHT22;27709;52.036;5.906;2023-02-11T08:41:12;7.90;99.90
42031;DHT22;27709;52.036;5.906;2023-02-11T08:43:42;7.90;99.90
42031;DHT22;27709;52.036;5.906;2023-02-11T08:46:11;7.90;99.90
42031;DHT22;27709;52.036;5.906;2023-02-11T08:48:37;7.90;99.90
42031;DHT22;27709;52.036;5.906;2023-02-11T08:51:07;8.00;99.90
42031;DHT22;27709;52.036;5.906;2023-02-11T08:53:34;8.00;99.90
42031;DHT22;27709;52.036;5.906;2023-02-11T08:56:00;8.00;99.90
42031;DHT22;27709;52.036;5.906;2023-02-11T08:58:25;8.10;99.90
42031;DHT22;27709;52.036;5.906;2023-02-11T09:00:51;8.10;99.90
42031;DHT22;27709;52.036;5.906;2023-02-11T09:03:16;8.20;99.90
42031;DHT22;27709;52.036;5.906;2023-02-11T09:05:43;8.20;99.90
42031;DHT22;27709;52.036;5.906;2023-02-11T09:08:10;8.30;99.90
42031;DHT22;27709;52.036;5.906;2023-02-11T09:10:36;8.30;99.90
42031;DHT22;27709;52.036;5.906;2023-02-11T09:13:02;8.40;99.90
42031;DHT22;27709;52.036;5.906;2023-02-11T09:15:28;8.40;99.90
42031;DHT22;27709;52.036;5.906;2023-02-11T09:17:53;8.40;99.90
42031;DHT22;27709;52.036;5.906;2023-02-11T09:20:19;8.50;99.90
42031;DHT22;27709;52.036;5.906;2023-02-11T09:22:45;8.50;99.90
42031;DHT22;27709;52.036;5.906;2023-02-11T09:25:11;8.60;99.90
42031;DHT22;27709;52.036;5.906;2023-02-11T09:27:36;8.60;99.90
42031;DHT22;27709;52.036;5.906;2023-02-11T09:30:02;8.70;99.90
42031;DHT22;27709;52.036;5.906;2023-02-11T09:32:28;8.80;99.90
42031;DHT22;27709;52.036;5.906;2023-02-11T09:34:53;8.90;99.90
42031;DHT22;27709;52.036;5.906;2023-02-11T09:37:19;9.00;99.90
42031;DHT22;27709;52.036;5.906;2023-02-11T09:39:45;9.10;99.90
42031;DHT22;27709;52.036;5.906;2023-02-11T09:42:37;9.10;99.90
42031;DHT22;27709;52.036;5.906;2023-02-11T09:45:11;9.20;99.90
42031;DHT22;27709;52.036;5.906;2023-02-11T09:47:47;9.20;99.90
42031;DHT22;27709;52.036;5.906;2023-02-11T09:50:14;9.30;99.90
42031;DHT22;27709;52.036;5.906;2023-02-11T09:52:55;9.40;99.90
42031;DHT22;27709;52.036;5.906;2023-02-11T09:55:29;9.40;99.90
42031;DHT22;27709;52.036;5.906;2023-02-11T09:57:56;9.50;99.90
42031;DHT22;27709;52.036;5.906;2023-02-11T10:03:20;9.50;99.90
42031;DHT22;27709;52.036;5.906;2023-02-11T10:06:12;9.70;99.90
42031;DHT22;27709;52.036;5.906;2023-02-11T10:08:41;9.70;99.90
42031;DHT22;27709;52.036;5.906;2023-02-11T10:14:27;9.80;99.90
42031;DHT22;27709;52.036;5.906;2023-02-11T10:17:21;9.80;99.90
42031;DHT22;27709;52.036;5.906;2023-02-11T10:27:42;9.90;99.90
42031;DHT22;27709;52.036;5.906;2023-02-11T10:30:29;10.00;99.90
42031;DHT22;27709;52.036;5.906;2023-02-11T10:33:03;10.10;99.90
42031;DHT22;27709;52.036;5.906;2023-02-11T10:35:31;10.10;99.90
42031;DHT22;27709;52.036;5.906;2023-02-11T10:37:58;10.20;99.90
42031;DHT22;27709;52.036;5.906;2023-02-11T10:40:26;10.30;99.90
42031;DHT22;27709;52.036;5.906;2023-02-11T10:42:55;10.30;99.90
42031;DHT22;27709;52.036;5.906;2023-02-11T10:45:49;10.40;99.90
42031;DHT22;27709;52.036;5.906;2023-02-11T10:51:14;10.50;99.90
42031;DHT22;27709;52.036;5.906;2023-02-11T10:53:40;10.60;99.90
42031;DHT22;27709;52.036;5.906;2023-02-11T10:56:06;10.70;99.90
42031;DHT22;27709;52.036;5.906;2023-02-11T11:01:20;10.70;99.90
42031;DHT22;27709;52.036;5.906;2023-02-11T11:03:51;10.70;99.90
42031;DHT22;27709;52.036;5.906;2023-02-11T11:06:31;10.80;99.90
42031;DHT22;27709;52.036;5.906;2023-02-11T11:08:57;10.90;99.90
42031;DHT22;27709;52.036;5.906;2023-02-11T11:11:24;10.90;99.90
42031;DHT22;27709;52.036;5.906;2023-02-11T11:16:27;11.00;99.90
42031;DHT22;27709;52.036;5.906;2023-02-11T11:21:51;11.00;99.90
42031;DHT22;27709;52.036;5.906;2023-02-11T11:24:24;11.00;99.90
42031;DHT22;27709;52.036;5.906;2023-02-11T11:26:53;11.00;99.90
42031;DHT22;27709;52.036;5.906;2023-02-11T11:29:28;11.00;99.90
42031;DHT22;27709;52.036;5.906;2023-02-11T11:31:58;11.10;99.90
42031;DHT22;27709;52.036;5.906;2023-02-11T11:34:36;11.10;99.90
42031;DHT22;27709;52.036;5.906;2023-02-11T11:37:27;11.20;99.90
42031;DHT22;27709;52.036;5.906;2023-02-11T11:40:06;11.20;99.90
42031;DHT22;27709;52.036;5.906;2023-02-11T11:42:35;11.30;99.90
42031;DHT22;27709;52.036;5.906;2023-02-11T11:45:21;11.30;99.90
42031;DHT22;27709;52.036;5.906;2023-02-11T11:47:58;11.40;99.90
42031;DHT22;27709;52.036;5.906;2023-02-11T11:50:41;11.50;99.90
42031;DHT22;27709;52.036;5.906;2023-02-11T11:56:14;11.70;99.90
42031;DHT22;27709;52.036;5.906;2023-02-11T11:58:40;11.80;99.90
42031;DHT22;27709;52.036;5.906;2023-02-11T12:01:26;11.80;99.90
42031;DHT22;27709;52.036;5.906;2023-02-11T12:09:43;12.00;99.90
42031;DHT22;27709;52.036;5.906;2023-02-11T12:15:22;12.20;99.90
42031;DHT22;27709;52.036;5.906;2023-02-11T12:26:47;12.10;99.90
42031;DHT22;27709;52.036;5.906;2023-02-11T12:29:36;12.10;99.90
42031;DHT22;27709;52.036;5.906;2023-02-11T12:34:59;12.20;99.90
42031;DHT22;27709;52.036;5.906;2023-02-11T12:40:21;12.20;99.90
42031;DHT22;27709;52.036;5.906;2023-02-11T12:54:44;12.30;99.90
42031;DHT22;27709;52.036;5.906;2023-02-11T12:57:26;12.30;99.90
42031;DHT22;27709;52.036;5.906;2023-02-11T12:59:57;12.20;99.90
42031;DHT22;27709;52.036;5.906;2023-02-11T13:02:43;12.20;99.90
42031;DHT22;27709;52.036;5.906;2023-02-11T13:05:51;12.10;99.90
42031;DHT22;27709;52.036;5.906;2023-02-11T13:08:26;12.10;99.90
42031;DHT22;27709;52.036;5.906;2023-02-11T13:11:01;12.00;99.90
42031;DHT22;27709;52.036;5.906;2023-02-11T13:13:36;12.00;99.90
42031;DHT22;27709;52.036;5.906;2023-02-11T13:16:06;12.00;99.90
42031;DHT22;27709;52.036;5.906;2023-02-11T13:18:46;11.90;99.90
42031;DHT22;27709;52.036;5.906;2023-02-11T13:23:58;11.90;99.90
42031;DHT22;27709;52.036;5.906;2023-02-11T13:26:44;12.00;99.90
42031;DHT22;27709;52.036;5.906;2023-02-11T13:31:55;11.90;99.90
42031;DHT22;27709;52.036;5.906;2023-02-11T13:40:42;11.90;99.90
42031;DHT22;27709;52.036;5.906;2023-02-11T13:42:57;11.90;99.90
42031;DHT22;27709;52.036;5.906;2023-02-11T13:45:37;11.90;99.90
42031;DHT22;27709;52.036;5.906;2023-02-11T13:48:12;11.90;99.90
42031;DHT22;27709;52.036;5.906;2023-02-11T13:50:46;11.90;99.90
42031;DHT22;27709;52.036;5.906;2023-02-11T13:53:13;11.90;99.90
42031;DHT22;27709;52.036;5.906;2023-02-11T13:55:40;12.00;99.90
42031;DHT22;27709;52.036;5.906;2023-02-11T14:06:16;12.00;99.90
42031;DHT22;27709;52.036;5.906;2023-02-11T14:09:37;12.00;99.90
42031;DHT22;27709;52.036;5.906;2023-02-11T14:12:22;12.00;99.90
42031;DHT22;27709;52.036;5.906;2023-02-11T14:17:33;11.90;99.90
42031;DHT22;27709;52.036;5.906;2023-02-11T14:20:00;11.90;99.90
42031;DHT22;27709;52.036;5.906;2023-02-11T14:22:42;11.90;99.90
42031;DHT22;27709;52.036;5.906;2023-02-11T14:25:22;11.90;99.90
42031;DHT22;27709;52.036;5.906;2023-02-11T14:27:56;11.80;99.90
42031;DHT22;27709;52.036;5.906;2023-02-11T14:36:01;11.70;99.90
42031;DHT22;27709;52.036;5.906;2023-02-11T14:41:23;11.60;99.90
42031;DHT22;27709;52.036;5.906;2023-02-11T14:43:56;11.60;99.90
42031;DHT22;27709;52.036;5.906;2023-02-11T14:46:23;11.50;99.90
42031;DHT22;27709;52.036;5.906;2023-02-11T14:48:52;11.50;99.90
42031;DHT22;27709;52.036;5.906;2023-02-11T14:51:24;11.50;99.90
42031;DHT22;27709;52.036;5.906;2023-02-11T14:54:08;11.60;99.90
42031;DHT22;27709;52.036;5.906;2023-02-11T14:56:37;11.60;99.90
42031;DHT22;27709;52.036;5.906;2023-02-11T14:59:15;11.50;99.90
42031;DHT22;27709;52.036;5.906;2023-02-11T15:01:48;11.60;99.90
42031;DHT22;27709;52.036;5.906;2023-02-11T15:04:26;11.60;99.90
42031;DHT22;27709;52.036;5.906;2023-02-11T15:06:55;11.60;99.90
42031;DHT22;27709;52.036;5.906;2023-02-11T15:09:47;11.60;99.90
42031;DHT22;27709;52.036;5.906;2023-02-11T15:12:24;11.60;99.90
42031;DHT22;27709;52.036;5.906;2023-02-11T15:14:59;11.50;99.90
42031;DHT22;27709;52.036;5.906;2023-02-11T15:17:29;11.60;99.90
42031;DHT22;27709;52.036;5.906;2023-02-11T15:19:58;11.50;99.90
42031;DHT22;27709;52.036;5.906;2023-02-11T15:22:25;11.50;99.90
42031;DHT22;27709;52.036;5.906;2023-02-11T15:25:13;11.50;99.90
42031;DHT22;27709;52.036;5.906;2023-02-11T15:27:49;11.50;99.90
42031;DHT22;27709;52.036;5.906;2023-02-11T15:32:57;11.40;99.90
42031;DHT22;27709;52.036;5.906;2023-02-11T15:35:32;11.30;99.90
42031;DHT22;27709;52.036;5.906;2023-02-11T15:37:59;11.30;99.90
42031;DHT22;27709;52.036;5.906;2023-02-11T15:40:28;11.30;99.90
42031;DHT22;27709;52.036;5.906;2023-02-11T15:42:58;11.20;99.90
42031;DHT22;27709;52.036;5.906;2023-02-11T15:45:32;11.10;99.90
42031;DHT22;27709;52.036;5.906;2023-02-11T15:48:17;11.10;99.90
42031;DHT22;27709;52.036;5.906;2023-02-11T15:50:53;11.00;99.90
42031;DHT22;27709;52.036;5.906;2023-02-11T15:53:37;11.00;99.90
42031;DHT22;27709;52.036;5.906;2023-02-11T15:56:36;11.00;99.90
42031;DHT22;27709;52.036;5.906;2023-02-11T15:59:26;10.90;99.90
42031;DHT22;27709;52.036;5.906;2023-02-11T16:01:57;10.80;99.90
42031;DHT22;27709;52.036;5.906;2023-02-11T16:04:25;10.80;99.90
42031;DHT22;27709;52.036;5.906;2023-02-11T16:06:52;10.70;99.90
42031;DHT22;27709;52.036;5.906;2023-02-11T16:14:23;10.60;99.90
42031;DHT22;27709;52.036;5.906;2023-02-11T16:19:26;10.50;99.90
42031;DHT22;27709;52.036;5.906;2023-02-11T16:21:54;10.50;99.90
42031;DHT22;27709;52.036;5.906;2023-02-11T16:26:55;10.40;99.90
42031;DHT22;27709;52.036;5.906;2023-02-11T16:29:32;10.40;99.90
42031;DHT22;27709;52.036;5.906;2023-02-11T16:32:19;10.30;99.90
42031;DHT22;27709;52.036;5.906;2023-02-11T16:34:45;10.30;99.90
42031;DHT22;27709;52.036;5.906;2023-02-11T16:37:11;10.10;99.90
42031;DHT22;27709;52.036;5.906;2023-02-11T16:39:36;10.00;99.90
42031;DHT22;27709;52.036;5.906;2023-02-11T16:42:02;9.90;99.90
42031;DHT22;27709;52.036;5.906;2023-02-11T16:44:28;9.80;99.90
42031;DHT22;27709;52.036;5.906;2023-02-11T16:46:57;9.70;99.90
42031;DHT22;27709;52.036;5.906;2023-02-11T16:49:30;9.70;99.90
42031;DHT22;27709;52.036;5.906;2023-02-11T16:51:58;9.60;99.90
42031;DHT22;27709;52.036;5.906;2023-02-11T16:54:29;9.50;99.90
42031;DHT22;27709;52.036;5.906;2023-02-11T16:56:55;9.40;99.90
42031;DHT22;27709;52.036;5.906;2023-02-11T16:59:21;9.40;99.90
42031;DHT22;27709;52.036;5.906;2023-02-11T17:01:47;9.30;99.90
42031;DHT22;27709;52.036;5.906;2023-02-11T17:04:25;9.20;99.90
42031;DHT22;27709;52.036;5.906;2023-02-11T17:06:51;9.20;99.90
42031;DHT22;27709;52.036;5.906;2023-02-11T17:09:21;9.10;99.90
42031;DHT22;27709;52.036;5.906;2023-02-11T17:11:48;9.00;99.90
42031;DHT22;27709;52.036;5.906;2023-02-11T17:14:14;8.90;99.90
42031;DHT22;27709;52.036;5.906;2023-02-11T17:16:40;8.90;99.90
42031;DHT22;27709;52.036;5.906;2023-02-11T17:19:05;8.80;99.90
42031;DHT22;27709;52.036;5.906;2023-02-11T17:21:31;8.80;99.90
42031;DHT22;27709;52.036;5.906;2023-02-11T17:23:57;8.70;99.90
42031;DHT22;27709;52.036;5.906;2023-02-11T17:26:23;8.60;99.90
42031;DHT22;27709;52.036;5.906;2023-02-11T17:28:49;8.50;99.90
42031;DHT22;27709;52.036;5.906;2023-02-11T17:31:14;8.40;99.90
42031;DHT22;27709;52.036;5.906;2023-02-11T17:33:43;8.30;99.90
42031;DHT22;27709;52.036;5.906;2023-02-11T17:36:10;8.20;99.90
42031;DHT22;27709;52.036;5.906;2023-02-11T17:38:36;8.10;99.90
42031;DHT22;27709;52.036;5.906;2023-02-11T17:41:03;8.10;99.90
42031;DHT22;27709;52.036;5.906;2023-02-11T17:43:29;8.00;99.90
42031;DHT22;27709;52.036;5.906;2023-02-11T17:45:55;7.90;99.90
42031;DHT22;27709;52.036;5.906;2023-02-11T17:48:20;7.90;99.90
42031;DHT22;27709;52.036;5.906;2023-02-11T17:50:46;7.80;99.90
42031;DHT22;27709;52.036;5.906;2023-02-11T17:53:11;7.70;99.90
42031;DHT22;27709;52.036;5.906;2023-02-11T17:55:38;7.70;99.90
42031;DHT22;27709;52.036;5.906;2023-02-11T17:58:04;7.60;99.90
42031;DHT22;27709;52.036;5.906;2023-02-11T18:00:29;7.50;99.90
42031;DHT22;27709;52.036;5.906;2023-02-11T18:02:58;7.50;99.90
42031;DHT22;27709;52.036;5.906;2023-02-11T18:05:32;7.50;99.90
42031;DHT22;27709;52.036;5.906;2023-02-11T18:07:58;7.40;99.90
42031;DHT22;27709;52.036;5.906;2023-02-11T18:10:23;7.30;99.90
42031;DHT22;27709;52.036;5.906;2023-02-11T18:12:49;7.30;99.90
42031;DHT22;27709;52.036;5.906;2023-02-11T18:15:14;7.30;99.90
42031;DHT22;27709;52.036;5.906;2023-02-11T18:17:40;7.20;99.90
42031;DHT22;27709;52.036;5.906;2023-02-11T18:20:07;7.20;99.90
42031;DHT22;27709;52.036;5.906;2023-02-11T18:22:33;7.20;99.90